createdAt,value
2024-02-13T00:01:15.321Z,99549.03
2024-02-13T00:03:43.880Z,99550.45
2024-02-13T00:06:12.467Z,99557.91
2024-02-13T00:08:45.533Z,99559.14
2024-02-13T00:11:16.274Z,99561.56
2024-02-13T00:13:47.899Z,99564.83
2024-02-13T00:16:20.388Z,99565.11
2024-02-13T00:18:49.365Z,99566.23
2024-02-13T00:21:18.708Z,99566.55
2024-02-13T00:23:49.355Z,99563.73
2024-02-13T00:26:18.010Z,99565.93
2024-02-13T00:28:47.599Z,99567.13
2024-02-13T00:31:16.176Z,99572.14
2024-02-13T00:33:45.347Z,99573.89
2024-02-13T00:36:14.213Z,99576.67
2024-02-13T00:38:45.140Z,99581.65
2024-02-13T00:41:14.346Z,99583.30
2024-02-13T00:43:42.889Z,99587.64
2024-02-13T00:46:12.303Z,99589.88
2024-02-13T00:48:40.930Z,99592.08
2024-02-13T00:51:09.505Z,99596.25
2024-02-13T00:53:39.372Z,99606.54
2024-02-13T00:56:09.359Z,99608.49
2024-02-13T00:58:38.471Z,99614.29
2024-02-13T01:01:07.046Z,99612.27
2024-02-13T01:03:37.739Z,99616.70
2024-02-13T01:06:08.155Z,99615.08
2024-02-13T01:08:36.705Z,99619.08
2024-02-13T01:11:05.183Z,99620.41
2024-02-13T01:13:33.734Z,99617.43
2024-02-13T01:16:04.267Z,99613.66
2024-02-13T01:18:33.076Z,99616.42
2024-02-13T01:21:01.828Z,99622.02
2024-02-13T01:23:30.244Z,99626.80
2024-02-13T01:26:00.567Z,99621.16
2024-02-13T01:28:29.321Z,99630.65
2024-02-13T01:30:59.656Z,99632.66
2024-02-13T01:33:28.835Z,99638.08
2024-02-13T01:35:57.780Z,99643.30
2024-02-13T01:38:29.412Z,99646.50
2024-02-13T01:40:58.031Z,99646.77
2024-02-13T01:43:27.168Z,99649.95
2024-02-13T01:45:57.617Z,99650.73
2024-02-13T01:48:27.331Z,99652.18
2024-02-13T01:51:01.906Z,99654.13
2024-02-13T01:53:32.476Z,99658.95
2024-02-13T01:56:04.104Z,99664.67
2024-02-13T01:58:32.891Z,99668.89
2024-02-13T02:01:02.687Z,99670.81
2024-02-13T02:03:36.620Z,99674.92
2024-02-13T02:06:05.840Z,99674.39
2024-02-13T02:08:34.891Z,99679.10
2024-02-13T02:11:04.131Z,99681.84
2024-02-13T02:13:33.013Z,99690.77
2024-02-13T02:16:01.954Z,99693.18
2024-02-13T02:18:30.754Z,99694.36
2024-02-13T02:20:59.516Z,99692.17
2024-02-13T02:23:28.388Z,99694.92
2024-02-13T02:25:57.196Z,99698.59
2024-02-13T02:28:26.108Z,99702.90
2024-02-13T02:30:55.406Z,99704.27
2024-02-13T02:33:24.141Z,99704.90
2024-02-13T02:35:53.736Z,99703.83
2024-02-13T02:38:22.474Z,99706.92
2024-02-13T02:40:51.148Z,99708.36
2024-02-13T02:43:20.998Z,99718.30
2024-02-13T02:45:50.232Z,99721.58
2024-02-13T02:48:19.670Z,99722.29
2024-02-13T02:50:48.488Z,99731.23
2024-02-13T02:53:19.860Z,99734.21
2024-02-13T02:55:50.633Z,99736.84
2024-02-13T02:58:19.398Z,99738.01
2024-02-13T03:00:50.091Z,99741.27
2024-02-13T03:03:19.652Z,99742.27
2024-02-13T03:05:49.792Z,99743.59
2024-02-13T03:08:18.414Z,99751.57
2024-02-13T03:10:46.919Z,99756.80
2024-02-13T03:13:17.077Z,99766.35
2024-02-13T03:15:46.187Z,99768.56
2024-02-13T03:18:15.040Z,99774.29
2024-02-13T03:20:44.066Z,99773.11
2024-02-13T03:23:12.567Z,99779.90
2024-02-13T03:25:41.112Z,99781.46
2024-02-13T03:28:09.582Z,99785.55
2024-02-13T03:30:38.756Z,99795.75
2024-02-13T03:33:07.458Z,99799.55
2024-02-13T03:35:36.077Z,99804.82
2024-02-13T03:38:05.725Z,99809.28
2024-02-13T03:40:34.514Z,99813.64
2024-02-13T03:43:03.043Z,99822.33
2024-02-13T03:45:31.908Z,99823.95
2024-02-13T03:48:02.300Z,99830.66
2024-02-13T03:50:30.944Z,99835.22
2024-02-13T03:52:59.517Z,99841.20
2024-02-13T03:55:28.026Z,99844.02
2024-02-13T03:57:56.869Z,99850.39
2024-02-13T04:00:26.106Z,99850.54
2024-02-13T04:02:55.710Z,99852.05
2024-02-13T04:05:25.934Z,99853.20
2024-02-13T04:07:55.767Z,99854.81
2024-02-13T04:10:25.100Z,99862.89
2024-02-13T04:12:53.563Z,99866.16
2024-02-13T04:15:22.110Z,99866.27
2024-02-13T04:17:52.085Z,99872.43
2024-02-13T04:20:20.892Z,99871.61
2024-02-13T04:22:49.466Z,99872.46
2024-02-13T04:25:18.648Z,99873.45
2024-02-13T04:27:47.242Z,99874.21
2024-02-13T04:30:15.953Z,99880.61
2024-02-13T04:32:44.654Z,99880.55
2024-02-13T04:35:13.272Z,99886.23
2024-02-13T04:37:41.904Z,99889.77
2024-02-13T04:40:13.078Z,99890.17
2024-02-13T04:42:42.974Z,99895.64
2024-02-13T04:45:11.434Z,99895.27
2024-02-13T04:47:40.635Z,99902.24
2024-02-13T04:50:12.084Z,99909.17
2024-02-13T04:52:42.268Z,99914.60
2024-02-13T04:55:12.124Z,99917.48
2024-02-13T04:57:40.748Z,99913.15
2024-02-13T05:00:29.835Z,99912.55
2024-02-13T05:03:16.898Z,99914.64
2024-02-13T05:06:04.647Z,99923.40
2024-02-13T05:08:33.341Z,99926.78
2024-02-13T05:11:04.019Z,99933.04
2024-02-13T05:13:32.764Z,99934.33
2024-02-13T05:16:01.896Z,99936.20
2024-02-13T05:18:32.139Z,99939.46
2024-02-13T05:21:01.211Z,99947.36
2024-02-13T05:23:30.468Z,99947.90
2024-02-13T05:25:59.088Z,99951.77
2024-02-13T05:28:27.705Z,99956.00
2024-02-13T05:30:57.092Z,99960.16
2024-02-13T05:33:25.848Z,99961.72
2024-02-13T05:35:55.441Z,99964.00
2024-02-13T05:38:24.225Z,99966.98
2024-02-13T05:40:52.853Z,99969.40
2024-02-13T05:43:22.150Z,99976.48
2024-02-13T05:45:50.702Z,99982.75
2024-02-13T05:48:20.095Z,99986.45
2024-02-13T05:50:48.942Z,99990.61
2024-02-13T05:53:18.281Z,99997.74
2024-02-13T05:55:47.031Z,100002.04
2024-02-13T05:58:15.723Z,100010.06
2024-02-13T06:00:45.153Z,100012.65
2024-02-13T06:03:13.793Z,100014.30
2024-02-13T06:05:42.534Z,100019.70
2024-02-13T06:08:11.178Z,100025.11
2024-02-13T06:10:41.098Z,100027.19
2024-02-13T06:13:09.842Z,100029.75
2024-02-13T06:15:38.616Z,100028.98
2024-02-13T06:18:08.056Z,100034.45
2024-02-13T06:20:37.110Z,100041.58
2024-02-13T06:23:05.737Z,100045.41
2024-02-13T06:25:34.295Z,100050.56
2024-02-13T06:28:02.826Z,100056.36
2024-02-13T06:30:33.436Z,100056.12
2024-02-13T06:33:02.462Z,100062.06
2024-02-13T06:35:31.589Z,100066.11
2024-02-13T06:38:00.624Z,100067.41
2024-02-13T06:40:30.004Z,100073.75
2024-02-13T06:42:58.716Z,100075.15
2024-02-13T06:45:28.407Z,100074.31
2024-02-13T06:47:57.243Z,100081.11
2024-02-13T06:50:25.764Z,100078.69
2024-02-13T06:52:57.263Z,100083.41
2024-02-13T06:55:26.896Z,100081.42
2024-02-13T06:57:56.077Z,100087.90
2024-02-13T07:00:27.296Z,100086.23
2024-02-13T07:02:56.296Z,100087.52
2024-02-13T07:05:25.587Z,100096.48
2024-02-13T07:07:54.259Z,100092.72
2024-02-13T07:10:23.203Z,100092.44
2024-02-13T07:12:52.789Z,100093.55
2024-02-13T07:17:56.866Z,100096.82
2024-02-13T07:20:29.817Z,100100.45
2024-02-13T07:22:58.671Z,100101.88
2024-02-13T07:25:27.190Z,100103.70
2024-02-13T07:27:58.231Z,100106.90
2024-02-13T07:30:27.627Z,100111.84
2024-02-13T07:32:56.806Z,100117.48
2024-02-13T07:35:26.064Z,100122.75
2024-02-13T07:37:54.713Z,100125.39
2024-02-13T07:40:23.252Z,100125.34
2024-02-13T07:42:51.777Z,100131.45
2024-02-13T07:45:22.483Z,100132.41
2024-02-13T07:47:53.327Z,100139.95
2024-02-13T07:50:26.372Z,100143.20
2024-02-13T07:52:54.920Z,100146.34
2024-02-13T07:55:24.159Z,100151.94
2024-02-13T07:57:55.719Z,100156.57
2024-02-13T08:00:27.430Z,100160.16
2024-02-13T08:02:56.725Z,100164.94
2024-02-13T08:05:25.696Z,100164.59
2024-02-13T08:07:54.340Z,100169.20
2024-02-13T08:10:22.790Z,100174.25
2024-02-13T08:12:51.430Z,100176.55
2024-02-13T08:15:19.900Z,100171.45
2024-02-13T08:17:48.448Z,100173.35
2024-02-13T08:20:17.521Z,100174.60
2024-02-13T08:22:46.030Z,100177.11
2024-02-13T08:25:15.548Z,100179.33
2024-02-13T08:27:44.053Z,100186.42
2024-02-13T08:30:13.345Z,100182.89
2024-02-13T08:32:45.796Z,100195.35
2024-02-13T08:35:14.888Z,100195.90
2024-02-13T08:37:46.326Z,100199.96
2024-02-13T08:40:16.544Z,100203.98
2024-02-13T08:42:46.145Z,100213.27
2024-02-13T08:45:15.639Z,100205.13
2024-02-13T08:47:44.268Z,100208.73
2024-02-13T08:50:14.499Z,100215.91
2024-02-13T08:52:43.279Z,100216.92
2024-02-13T08:55:11.993Z,100226.66
2024-02-13T08:57:40.849Z,100226.04
2024-02-13T09:00:13.100Z,100225.66
2024-02-13T09:02:41.831Z,100231.18
2024-02-13T09:05:10.604Z,100231.44
2024-02-13T09:07:39.871Z,100235.30
2024-02-13T09:10:13.606Z,100233.45
2024-02-13T09:12:46.469Z,100238.63
2024-02-13T09:15:15.395Z,100241.35
2024-02-13T09:17:46.112Z,100240.08
2024-02-13T09:20:16.464Z,100242.58
2024-02-13T09:22:46.304Z,100249.49
2024-02-13T09:25:17.530Z,100253.83
2024-02-13T09:27:49.507Z,100265.23
2024-02-13T09:30:19.036Z,100266.74
2024-02-13T09:32:49.238Z,100268.92
2024-02-13T09:35:19.117Z,100270.92
2024-02-13T09:37:48.319Z,100269.89
2024-02-13T09:40:17.638Z,100274.19
2024-02-13T09:42:47.513Z,100274.89
2024-02-13T09:45:17.542Z,100277.74
2024-02-13T09:47:46.993Z,100278.83
2024-02-13T09:50:17.063Z,100277.45
2024-02-13T09:52:56.132Z,100282.11
2024-02-13T09:55:26.412Z,100285.98
2024-02-13T09:57:55.597Z,100284.67
2024-02-13T10:00:24.412Z,100286.95
2024-02-13T10:02:53.184Z,100287.96
2024-02-13T10:05:22.685Z,100292.94
2024-02-13T10:07:51.552Z,100296.34
2024-02-13T10:10:20.427Z,100298.16
2024-02-13T10:13:02.179Z,100303.23
2024-02-13T10:15:45.103Z,100299.10
2024-02-13T10:18:15.151Z,100311.86
2024-02-13T10:20:45.194Z,100314.98
2024-02-13T10:23:15.598Z,100311.91
2024-02-13T10:25:44.860Z,100320.40
2024-02-13T10:28:13.790Z,100316.02
2024-02-13T10:30:44.988Z,100319.25
2024-02-13T10:33:13.781Z,100318.39
2024-02-13T10:35:43.140Z,100321.69
2024-02-13T10:38:12.505Z,100323.85
2024-02-13T10:40:44.571Z,100327.51
2024-02-13T10:43:14.029Z,100340.17
2024-02-13T10:45:43.068Z,100337.89
2024-02-13T10:48:47.324Z,100345.86
2024-02-13T10:51:19.194Z,100337.61
2024-02-13T10:53:50.797Z,100338.66
2024-02-13T10:56:23.108Z,100340.30
2024-02-13T10:58:51.957Z,100340.17
2024-02-13T11:01:24.159Z,100338.08
2024-02-13T11:03:58.204Z,100338.91
2024-02-13T11:06:27.318Z,100345.61
2024-02-13T11:08:58.586Z,100347.43
2024-02-13T11:11:28.911Z,100349.36
2024-02-13T11:13:58.166Z,100355.23
2024-02-13T11:16:26.728Z,100353.79
2024-02-13T11:18:55.410Z,100358.05
2024-02-13T11:21:28.626Z,100356.20
2024-02-13T11:24:01.722Z,100359.01
2024-02-13T11:26:35.907Z,100358.33
2024-02-13T11:29:23.535Z,100358.02
2024-02-13T11:31:59.999Z,100358.05
2024-02-13T11:34:45.635Z,100362.60
2024-02-13T11:37:19.529Z,100361.61
2024-02-13T11:39:49.287Z,100358.83
2024-02-13T11:42:21.229Z,100356.13
2024-02-13T11:44:54.493Z,100356.77
2024-02-13T11:47:26.364Z,100356.56
2024-02-13T11:49:56.441Z,100360.05
2024-02-13T11:52:25.315Z,100360.86
2024-02-13T11:54:56.045Z,100362.94
2024-02-13T11:57:27.307Z,100365.77
2024-02-13T12:00:01.665Z,100359.27
2024-02-13T12:02:31.156Z,100362.25
2024-02-13T12:04:59.965Z,100367.91
2024-02-13T12:07:34.055Z,100365.48
2024-02-13T12:10:02.717Z,100376.08
2024-02-13T12:12:31.941Z,100376.58
2024-02-13T12:15:02.038Z,100375.02
2024-02-13T12:17:33.748Z,100374.41
2024-02-13T12:20:02.366Z,100371.31
2024-02-13T12:22:31.578Z,100369.83
2024-02-13T12:25:07.981Z,100371.77
2024-02-13T12:27:36.913Z,100379.02
2024-02-13T12:30:06.485Z,100377.87
2024-02-13T12:32:39.846Z,100376.70
2024-02-13T12:35:23.358Z,100380.80
2024-02-13T12:37:55.840Z,100386.15
2024-02-13T12:40:27.661Z,100383.76
2024-02-13T12:42:56.544Z,100384.77
2024-02-13T12:45:26.383Z,100390.15
2024-02-13T12:47:57.072Z,100392.73
2024-02-13T12:50:27.987Z,100395.96
2024-02-13T12:52:56.781Z,100394.17
2024-02-13T12:55:26.991Z,100397.23
2024-02-13T12:57:56.104Z,100390.55
2024-02-13T13:00:24.600Z,100392.72
2024-02-13T13:02:54.267Z,100392.14
2024-02-13T13:05:23.730Z,100394.27
2024-02-13T13:07:54.536Z,100391.09
2024-02-13T13:10:24.485Z,100394.92
2024-02-13T13:12:53.384Z,100393.86
2024-02-13T13:15:25.171Z,100395.76
2024-02-13T13:17:56.066Z,100396.77
2024-02-13T13:20:25.384Z,100401.14
2024-02-13T13:22:53.952Z,100400.11
2024-02-13T13:25:27.376Z,100400.92
2024-02-13T13:28:00.663Z,100401.73
2024-02-13T13:30:30.384Z,100402.87
2024-02-13T13:32:59.617Z,100406.98
2024-02-13T13:35:29.923Z,100410.01
2024-02-13T13:38:01.055Z,100404.45
2024-02-13T13:40:34.520Z,100412.01
2024-02-13T13:43:03.115Z,100411.40
2024-02-13T13:45:31.784Z,100415.73
2024-02-13T13:48:16.579Z,100418.14
2024-02-13T13:50:45.137Z,100422.45
2024-02-13T13:53:14.605Z,100421.09
2024-02-13T13:55:45.057Z,100426.35
2024-02-13T13:58:13.946Z,100422.88
2024-02-13T14:00:46.471Z,100427.61
2024-02-13T14:03:16.057Z,100426.79
2024-02-13T14:05:45.646Z,100430.69
2024-02-13T14:08:14.403Z,100434.77
2024-02-13T14:10:45.948Z,100434.46
2024-02-13T14:13:15.409Z,100436.92
2024-02-13T14:15:44.206Z,100437.58
2024-02-13T14:18:13.046Z,100437.48
2024-02-13T14:20:43.130Z,100444.42
2024-02-13T14:23:11.881Z,100439.84
2024-02-13T14:25:40.844Z,100443.27
2024-02-13T14:28:11.019Z,100441.89
2024-02-13T14:30:42.220Z,100446.09
2024-02-13T14:33:11.910Z,100444.11
2024-02-13T14:35:43.365Z,100445.29
2024-02-13T14:38:12.677Z,100445.43
2024-02-13T14:40:41.348Z,100448.07
2024-02-13T14:43:11.146Z,100448.19
2024-02-13T14:45:41.205Z,100453.66
2024-02-13T14:48:10.583Z,100453.32
2024-02-13T14:50:41.197Z,100455.89
2024-02-13T14:53:11.297Z,100453.88
2024-02-13T14:55:40.462Z,100459.58
2024-02-13T14:58:19.279Z,100461.30
2024-02-13T15:00:56.569Z,100461.86
2024-02-13T15:03:26.547Z,100462.81
2024-02-13T15:05:55.502Z,100466.89
2024-02-13T15:08:24.154Z,100467.64
2024-02-13T15:10:53.338Z,100468.39
2024-02-13T15:13:22.563Z,100472.05
2024-02-13T15:15:52.537Z,100476.48
2024-02-13T15:18:23.507Z,100480.72
2024-02-13T15:20:53.015Z,100483.33
2024-02-13T15:23:25.626Z,100484.21
2024-02-13T15:25:55.371Z,100486.41
2024-02-13T15:28:24.572Z,100489.33
2024-02-13T15:30:54.148Z,100491.87
2024-02-13T15:33:26.322Z,100490.36
2024-02-13T15:36:06.667Z,100494.79
2024-02-13T15:38:54.588Z,100495.95
2024-02-13T15:41:52.762Z,100506.17
2024-02-13T15:44:40.031Z,100508.20
2024-02-13T15:47:09.289Z,100509.95
2024-02-13T15:49:40.999Z,100514.45
2024-02-13T15:52:11.918Z,100519.70
2024-02-13T15:54:41.212Z,100522.05
2024-02-13T15:57:10.359Z,100520.55
2024-02-13T15:59:44.927Z,100521.42
2024-02-13T16:02:16.108Z,100525.89
2024-02-13T16:04:44.957Z,100532.63
2024-02-13T16:07:16.676Z,100535.14
2024-02-13T16:09:47.035Z,100539.95
2024-02-13T16:12:15.540Z,100542.92
2024-02-13T16:14:44.315Z,100543.17
2024-02-13T16:17:13.080Z,100544.73
2024-02-13T16:19:41.686Z,100546.02
2024-02-13T16:22:10.328Z,100545.35
2024-02-13T16:24:38.860Z,100548.39
2024-02-13T16:27:07.412Z,100553.89
2024-02-13T16:29:40.118Z,100558.79
2024-02-13T16:32:13.041Z,100559.88
2024-02-13T16:34:43.501Z,100559.12
2024-02-13T16:37:12.498Z,100561.61
2024-02-13T16:39:41.496Z,100565.39
2024-02-13T16:42:10.119Z,100564.99
2024-02-13T16:44:39.515Z,100569.53
2024-02-13T16:47:10.304Z,100568.55
2024-02-13T16:49:39.108Z,100575.59
2024-02-13T16:52:09.980Z,100577.81
2024-02-13T16:54:38.538Z,100579.11
2024-02-13T16:57:07.160Z,100585.63
2024-02-13T16:59:35.703Z,100592.11
2024-02-13T17:02:05.029Z,100594.15
2024-02-13T17:04:33.492Z,100597.81
2024-02-13T17:07:02.205Z,100601.09
2024-02-13T17:09:31.604Z,100604.08
2024-02-13T17:12:00.184Z,100606.87
2024-02-13T17:14:30.201Z,100610.88
2024-02-13T17:16:58.996Z,100609.17
2024-02-13T17:19:27.675Z,100609.38
2024-02-13T17:21:57.156Z,100611.98
2024-02-13T17:24:25.659Z,100613.26
2024-02-13T17:26:54.137Z,100613.84
2024-02-13T17:29:22.944Z,100620.20
2024-02-13T17:31:53.228Z,100619.65
2024-02-13T17:34:22.892Z,100622.45
2024-02-13T17:36:51.536Z,100621.84
2024-02-13T17:39:20.584Z,100625.00
2024-02-13T17:41:51.590Z,100626.14
2024-02-13T17:44:20.478Z,100632.58
2024-02-13T17:46:49.070Z,100635.86
2024-02-13T17:49:18.323Z,100636.38
2024-02-13T17:51:46.991Z,100634.40
2024-02-13T17:54:15.509Z,100630.73
2024-02-13T17:56:47.739Z,100632.58
2024-02-13T17:59:16.630Z,100632.83
2024-02-13T18:01:51.417Z,100629.34
2024-02-13T18:04:21.941Z,100630.21
2024-02-13T18:06:50.657Z,100632.61
2024-02-13T18:09:19.288Z,100628.98
2024-02-13T18:11:47.726Z,100626.52
2024-02-13T18:14:17.344Z,100628.91
2024-02-13T18:16:45.865Z,100633.70
2024-02-13T18:19:14.808Z,100637.19
2024-02-13T18:21:43.354Z,100632.75
2024-02-13T18:24:11.871Z,100636.77
2024-02-13T18:26:40.383Z,100635.80
2024-02-13T18:29:09.077Z,100636.58
2024-02-13T18:31:39.715Z,100634.77
2024-02-13T18:34:08.551Z,100634.48
2024-02-13T18:36:45.149Z,100637.48
2024-02-13T18:39:16.932Z,100635.70
2024-02-13T18:41:45.471Z,100641.85
2024-02-13T18:44:14.118Z,100640.08
2024-02-13T18:46:43.554Z,100644.96
2024-02-13T18:49:13.092Z,100644.80
2024-02-13T18:51:42.884Z,100654.30
2024-02-13T18:54:11.742Z,100655.03
2024-02-13T18:56:42.099Z,100656.80
2024-02-13T18:59:12.494Z,100656.80
2024-02-13T19:01:43.444Z,100658.20
2024-02-13T19:04:11.939Z,100658.07
2024-02-13T19:06:40.629Z,100657.06
2024-02-13T19:09:11.013Z,100652.96
2024-02-13T19:11:41.187Z,100652.11
2024-02-13T19:14:11.095Z,100655.58
2024-02-13T19:16:45.089Z,100654.50
2024-02-13T19:19:15.013Z,100654.10
2024-02-13T19:21:44.099Z,100655.77
2024-02-13T19:24:12.922Z,100656.41
2024-02-13T19:26:41.558Z,100658.98
2024-02-13T19:29:10.266Z,100660.61
2024-02-13T19:31:39.031Z,100664.97
2024-02-13T19:34:07.675Z,100661.96
2024-02-13T19:36:36.361Z,100657.90
2024-02-13T19:39:04.889Z,100659.85
2024-02-13T19:41:33.627Z,100666.08
2024-02-13T19:44:02.481Z,100666.30
2024-02-13T19:46:30.954Z,100670.08
2024-02-13T19:48:59.753Z,100670.45
2024-02-13T19:51:33.727Z,100674.08
2024-02-13T19:54:03.138Z,100678.23
2024-02-13T19:56:33.332Z,100677.92
2024-02-13T19:59:01.985Z,100673.88
2024-02-13T20:01:37.589Z,100675.89
2024-02-13T20:04:10.344Z,100677.38
2024-02-13T20:06:39.217Z,100675.42
2024-02-13T20:09:09.707Z,100680.89
2024-02-13T20:11:42.442Z,100680.48
2024-02-13T20:14:13.989Z,100680.27
2024-02-13T20:16:42.578Z,100683.13
2024-02-13T20:19:15.510Z,100684.93
2024-02-13T20:21:49.611Z,100685.89
2024-02-13T20:24:18.324Z,100683.41
2024-02-13T20:27:10.757Z,100686.48
2024-02-13T20:29:39.466Z,100688.47
2024-02-13T20:32:08.196Z,100691.00
2024-02-13T20:34:40.147Z,100694.52
2024-02-13T20:37:12.223Z,100694.29
2024-02-13T20:39:43.039Z,100699.54
2024-02-13T20:42:11.514Z,100695.96
2024-02-13T20:44:42.003Z,100696.00
2024-02-13T20:47:11.878Z,100693.59
2024-02-13T20:49:42.300Z,100695.01
2024-02-13T20:52:14.414Z,100699.16
2024-02-13T20:55:04.147Z,100703.98
2024-02-13T20:58:03.111Z,100707.30
2024-02-13T21:00:33.470Z,100707.20
2024-02-13T21:03:06.310Z,100706.58
2024-02-13T21:05:36.493Z,100697.67
2024-02-13T21:08:06.079Z,100700.48
2024-02-13T21:10:34.695Z,100699.09
2024-02-13T21:13:04.164Z,100699.94
2024-02-13T21:15:35.405Z,100698.89
2024-02-13T21:18:07.445Z,100699.20
2024-02-13T21:20:47.482Z,100697.46
2024-02-13T21:23:35.089Z,100697.83
2024-02-13T21:26:04.263Z,100700.95
2024-02-13T21:28:34.367Z,100701.31
2024-02-13T21:31:05.649Z,100705.65
2024-02-13T21:33:34.595Z,100706.54
2024-02-13T21:36:03.716Z,100703.64
2024-02-13T21:38:32.764Z,100701.60
2024-02-13T21:41:01.241Z,100700.40
2024-02-13T21:43:30.174Z,100703.52
2024-02-13T21:45:59.204Z,100706.27
2024-02-13T21:48:28.036Z,100705.42
2024-02-13T21:50:56.826Z,100705.45
2024-02-13T21:53:25.608Z,100704.45
2024-02-13T21:55:54.262Z,100708.07
2024-02-13T21:58:23.464Z,100703.30
2024-02-13T22:00:52.096Z,100707.13
2024-02-13T22:03:20.604Z,100711.42
2024-02-13T22:05:49.637Z,100712.43
2024-02-13T22:08:19.344Z,100713.13
2024-02-13T22:10:48.179Z,100714.02
2024-02-13T22:13:19.491Z,100720.44
2024-02-13T22:15:48.908Z,100720.64
2024-02-13T22:18:17.589Z,100723.40
2024-02-13T22:20:46.719Z,100722.54
2024-02-13T22:23:15.657Z,100724.45
2024-02-13T22:25:44.331Z,100725.87
2024-02-13T22:28:13.878Z,100722.80
2024-02-13T22:30:46.857Z,100720.60
2024-02-13T22:33:16.033Z,100718.92
2024-02-13T22:35:44.900Z,100722.80
2024-02-13T22:38:13.445Z,100723.06
2024-02-13T22:40:42.177Z,100727.87
2024-02-13T22:43:10.733Z,100730.93
2024-02-13T22:45:40.772Z,100736.36
2024-02-13T22:48:09.494Z,100739.73
2024-02-13T22:50:38.095Z,100742.20
2024-02-13T22:53:06.644Z,100744.86
2024-02-13T22:55:36.325Z,100746.13
2024-02-13T22:58:05.237Z,100745.16
2024-02-13T23:00:44.447Z,100752.78
2024-02-13T23:03:14.055Z,100750.43
2024-02-13T23:08:41.824Z,100755.91
2024-02-13T23:11:11.264Z,100753.25
2024-02-13T23:13:45.629Z,100751.91
2024-02-13T23:16:17.916Z,100751.66
2024-02-13T23:18:46.765Z,100752.02
2024-02-13T23:21:16.422Z,100750.48
2024-02-13T23:23:45.296Z,100752.73
2024-02-13T23:26:14.224Z,100755.34
2024-02-13T23:28:51.954Z,100756.55
2024-02-13T23:31:25.953Z,100757.92
2024-02-13T23:33:55.117Z,100756.08
2024-02-13T23:36:24.245Z,100757.98
2024-02-13T23:38:53.033Z,100759.00
2024-02-13T23:41:21.640Z,100757.09
2024-02-13T23:43:50.222Z,100753.65
2024-02-13T23:46:20.756Z,100753.99
2024-02-13T23:48:49.637Z,100754.15
2024-02-13T23:51:18.517Z,100752.77
2024-02-13T23:53:47.203Z,100755.65
2024-02-13T23:56:16.001Z,100753.21
2024-02-13T23:58:44.637Z,100748.21
